AirNav   Bose Proflight Series 2 Wireless Aviation Headset
 
 1151 users online  

8FA7 Viera Hospital Heliport
Melbourne, Florida, USA

GOING TO MELBOURNE?


FAA INFORMATION EFFECTIVE 07 NOVEMBER 2019

Location

FAA Identifier: 8FA7
Lat/Long: 28-13-36.4000N 080-43-51.5000W
28-13.606667N 080-43.858333W
28.2267778,-80.7309722
(estimated)
Elevation: 29 ft. / 9 m (estimated)
From city: 3 miles W of MELBOURNE, FL
Time zone: UTC -5 (UTC -4 during Daylight Saving Time)
Zip code: 32940

Heliport Operations

Heliport use: Private use. Permission required prior to landing
Activation date: 03/2011
Control tower: no
ARTCC: JACKSONVILLE CENTER
FSS: SAINT PETERSBURG FLIGHT SERVICE STATION
Attendance: UNATNDD
Wind indicator: lighted
Segmented circle: no
Lights: ACTVT PERI H1 - 122.825.
Beacon: white-green-yellow (heliport)
ACTVT BCN - 122.825.

Heliport Communications

WX AWOS-3 at COI (7 nm N): 119.025 (321-986-8864)
WX ASOS at MLB (9 nm SE): PHONE 321-951-7575
WX AWOS-3PT at TIX (18 nm N): 120.625 (321-567-6090)
WX AWOS-3 at X59 (18 nm SE): 122.725

Nearby radio navigation aids

VOR radial/distance  VOR name  Freq  Var
MLBr332/8.9MELBOURNE VOR/DME110.0007W
TRVr346/35.3TREASURE VORTAC117.3007W
ORLr121/37.1ORLANDO VORTAC112.2000E

Heliport Services

Runway Information

Helipad H1

Dimensions: 44 x 44 ft. / 13 x 13 m
Surface: concrete, in good condition
Runway edge lights: PERI
Latitude: 28-13.606667N
Longitude: 080-43.858333W
Elevation: 29.0 ft.
Traffic pattern: leftleft
Markings: basic, in good condition

Heliport Ownership and Management from official FAA records

Ownership: Privately-owned
Owner: HEALTH FIRST INC/ VIERA HOSPITAL
8745 NORTH WICKHAM ROAD
MELBOURNE, FL 32940
Phone 321-434-9165
Manager: MANAGER
8745 NORTH WICKHAM ROAD
MELBOURNE, FL 32940
Phone 321-434-9165
ADDITIONAL CONTACT: FIRST FLIGHT MANAGER - TIFFANY BASSANI 1377 GENERAL AVIATION DR. HANGAR 18 MELBOURNE, FL 32940 321-751-0431

Additional Remarks

FOR CD CTC ORLANDO APCH AT 407-852-7553.

Instrument Procedures

There are no published instrument procedures at 8FA7.

Some nearby airports with instrument procedures:

KCOF - Patrick Air Force Base (6 nm E)
KCOI - Merritt Island Airport (7 nm N)
KMLB - Melbourne International Airport (9 nm SE)
KXMR - Cape Canaveral Air Force Station Skid Strip (17 nm NE)
KTIX - Space Coast Regional Airport (18 nm N)
 
Loc | Ops | Rwys | IFR | FBO | Links
Com | Nav | Svcs | Stats | Notes


 
Aerial photo
No photo
 
Sectional chart

 
Airport distance calculator
Flying to Viera Hospital Heliport? Find the distance to fly.

From to 8FA7

Sunrise and sunset
Times for 21-Nov-2019
 Local
(UTC-5)
 Zulu
(UTC)
Morning civil twilight06:2611:26
Sunrise06:5111:51
Sunset17:2722:27
Evening civil twilight17:5222:52

Current date and time
Zulu (UTC)  21-Nov-2019 23:39:37
Local (UTC-5)  21-Nov-2019 18:39:37
 
METAR
KCOF 
8nm E 
212256Z AUTO 03004KT 10SM CLR 20/17 A3016 RMK AO2 SLP218 T01960172 $
KMLB 
9nm SE 
212253Z 03003KT 10SM FEW060 21/14 A3016 RMK AO2 SLP211 T02110144
KTIX 
18nm N 
212248Z VRB05KT 7SM SCT060 23/14 A3018
KXMR 
18nm NE 
212256Z AUTO 00000KT 10SM SCT042 OVC055 20/16 A3016 RMK AO2 SLP216 T02020158 $
TAF
KCOF 
8nm E 
211900Z 2119/2301 06010KT 9999 SCT050 QNH3010INS BECMG 2205/2206 VRB04KT 9999 FEW050 SCT280 QNH3006INS TX25/2219Z TN16/2211Z
KMLB 
9nm SE 
211732Z 2118/2218 06009KT P6SM SCT050 FM220000 06004KT P6SM SCT040 FM221500 12005KT P6SM SCT035 SCT250
KTIX 
18nm N 
211732Z 2118/2218 06010KT P6SM SCT050 FM220000 VRB03KT P6SM FEW040 FM221500 18005KT P6SM FEW035 SCT250
NOTAMs
Click for the latest NOTAMs
NOTAMs are issued by the DoD/FAA and will open in a separate window not controlled by AirNav.

 

 
 

Would you like to see your business listed on this page?

 If your business provides an interesting product or service to pilots, flight crews, aircraft, or users of the Viera Hospital Heliport, you should consider listing it here.  To start the listing process, click on the button below
 
Add a business
 

Other Pages about Viera Hospital Heliport

Update a link
 
Copyright © AirNav, LLC. All rights reserved. Privacy Policy  Contact